Time;durP1;ratioP1;P1;durP2;ratioP2;P2;SDS_P1;SDS_P2;PMS_P1;PMS_P2;Temp;Humidity;BMP_temperature;BMP_pressure;BME280_temperature;BME280_humidity;BME280_pressure;Samples;Min_cycle;Max_cycle;Signal;HPM_P1;HPM_P2
2021/04/21 00:00:50;;;;;;;15.02;9.23;;;;;;;;;;5035130;28;20040;-65
2021/04/21 00:03:17;;;;;;;16.20;10.55;;;;;;;;;;5033887;28;20044;-65
2021/04/21 00:05:44;;;;;;;13.68;8.13;;;;;;;;;;5034754;28;20045;-65
2021/04/21 00:08:10;;;;;;;13.60;8.80;;;;;;;;;;5034919;28;20080;-65
2021/04/21 00:10:36;;;;;;;16.30;10.55;;;;;;;;;;5034881;28;20033;-66
2021/04/21 00:13:03;;;;;;;17.38;10.45;;;;;;;;;;5034696;28;20033;-65
2021/04/21 00:15:29;;;;;;;17.95;11.40;;;;;;;;;;5034874;28;20025;-65
2021/04/21 00:17:59;;;;;;;16.58;10.68;;;;;;;;;;5034795;28;20379;-65
2021/04/21 00:20:26;;;;;;;18.15;10.23;;;;;;;;;;5034653;28;20185;-65
2021/04/21 00:23:04;;;;;;;14.57;8.63;;;;;;;;;;5034915;28;20096;-66
2021/04/21 00:25:31;;;;;;;10.52;6.43;;;;;;;;;;5034758;28;20026;-66
2021/04/21 00:27:57;;;;;;;10.63;5.93;;;;;;;;;;5034068;28;20025;-66
2021/04/21 00:30:25;;;;;;;12.02;7.13;;;;;;;;;;5034329;28;20128;-66
2021/04/21 00:32:53;;;;;;;11.63;7.05;;;;;;;;;;5033310;28;20040;-65
2021/04/21 00:35:25;;;;;;;12.20;7.90;;;;;;;;;;5034988;28;20025;-65
2021/04/21 00:37:55;;;;;;;12.60;8.18;;;;;;;;;;5034683;28;20496;-65
2021/04/21 00:40:28;;;;;;;13.40;8.55;;;;;;;;;;5034589;28;20021;-65
2021/04/21 00:42:59;;;;;;;14.10;8.60;;;;;;;;;;5034490;28;20057;-65
2021/04/21 00:45:32;;;;;;;13.05;8.05;;;;;;;;;;5034322;28;20033;-65
2021/04/21 00:48:08;;;;;;;10.98;6.43;;;;;;;;;;5034180;28;20037;-65
2021/04/21 00:50:47;;;;;;;11.10;6.25;;;;;;;;;;5034138;28;20079;-65
2021/04/21 00:53:20;;;;;;;9.90;6.22;;;;;;;;;;5034093;28;20470;-66
2021/04/21 00:55:55;;;;;;;14.73;8.02;;;;;;;;;;5033779;28;20101;-65
2021/04/21 00:58:51;;;;;;;11.48;6.28;;;;;;;;;;5034085;28;20444;-66
2021/04/21 01:01:18;;;;;;;12.93;6.88;;;;;;;;;;5014487;28;20034;-66
2021/04/21 01:03:44;;;;;;;12.73;6.80;;;;;;;;;;5034092;28;20482;-65
2021/04/21 01:06:13;;;;;;;13.13;8.35;;;;;;;;;;5033882;28;20033;-65
2021/04/21 01:08:45;;;;;;;13.82;8.20;;;;;;;;;;5033536;28;20029;-65
2021/04/21 01:11:14;;;;;;;12.85;8.10;;;;;;;;;;5033680;28;20121;-65
2021/04/21 01:13:43;;;;;;;10.55;7.38;;;;;;;;;;5033759;28;20030;-65
2021/04/21 01:16:11;;;;;;;10.52;6.65;;;;;;;;;;5033686;28;20025;-65
2021/04/21 01:18:38;;;;;;;11.23;6.13;;;;;;;;;;5033628;28;20055;-65
2021/04/21 01:21:12;;;;;;;13.23;6.78;;;;;;;;;;5033739;28;20032;-65
2021/04/21 01:23:48;;;;;;;11.55;7.18;;;;;;;;;;5033201;28;20052;-65
2021/04/21 01:26:18;;;;;;;11.60;8.02;;;;;;;;;;5033488;28;20024;-65
2021/04/21 01:28:45;;;;;;;11.48;7.40;;;;;;;;;;5033426;28;20485;-66
2021/04/21 01:31:12;;;;;;;12.27;7.15;;;;;;;;;;5032727;28;20111;-66
2021/04/21 01:33:39;;;;;;;11.95;7.93;;;;;;;;;;5033340;28;20041;-65
2021/04/21 01:36:07;;;;;;;17.10;9.70;;;;;;;;;;5033275;28;20029;-65
2021/04/21 01:38:34;;;;;;;13.73;7.82;;;;;;;;;;5033012;28;20540;-65
2021/04/21 01:41:12;;;;;;;9.43;5.93;;;;;;;;;;5032982;28;20057;-65
2021/04/21 01:43:46;;;;;;;10.25;5.75;;;;;;;;;;5032838;28;20029;-65
2021/04/21 01:46:14;;;;;;;9.60;5.60;;;;;;;;;;5033216;28;20075;-65
2021/04/21 01:48:41;;;;;;;11.60;7.00;;;;;;;;;;5033365;28;20045;-66
2021/04/21 01:51:15;;;;;;;13.25;8.10;;;;;;;;;;5032589;28;20029;-66
2021/04/21 01:53:44;;;;;;;13.40;8.88;;;;;;;;;;5033318;28;20039;-65
2021/04/21 01:56:29;;;;;;;13.77;8.55;;;;;;;;;;5032949;28;20490;-65
2021/04/21 01:59:01;;;;;;;9.70;6.80;;;;;;;;;;5032694;28;20076;-65
2021/04/21 02:01:33;;;;;;;9.77;5.97;;;;;;;;;;5033062;28;20076;-66
2021/04/21 02:04:04;;;;;;;11.70;6.65;;;;;;;;;;5032989;28;20028;-66
2021/04/21 02:06:37;;;;;;;10.88;6.32;;;;;;;;;;5032445;28;20032;-65
2021/04/21 02:09:09;;;;;;;10.48;6.05;;;;;;;;;;5032806;28;20069;-65
2021/04/21 02:11:38;;;;;;;8.30;4.90;;;;;;;;;;5032304;28;20041;-65
2021/04/21 02:14:15;;;;;;;9.35;5.47;;;;;;;;;;5032761;28;20022;-65
2021/04/21 02:16:41;;;;;;;9.90;5.97;;;;;;;;;;5032651;28;20022;-65
2021/04/21 02:19:19;;;;;;;6.95;4.05;;;;;;;;;;5032368;28;20325;-65
2021/04/21 02:22:04;;;;;;;7.93;4.45;;;;;;;;;;5032842;28;20056;-65
2021/04/21 02:24:54;;;;;;;7.38;4.53;;;;;;;;;;5032618;28;20530;-65
2021/04/21 02:27:46;;;;;;;10.77;5.47;;;;;;;;;;5032221;28;20026;-65
2021/04/21 02:30:31;;;;;;;9.32;5.10;;;;;;;;;;5031241;28;20034;-66
2021/04/21 02:32:57;;;;;;;7.18;4.57;;;;;;;;;;5032168;28;20104;-66
2021/04/21 02:35:23;;;;;;;6.20;4.07;;;;;;;;;;5032563;28;20030;-65
2021/04/21 02:37:52;;;;;;;9.68;5.70;;;;;;;;;;5032482;28;20481;-65
2021/04/21 02:40:27;;;;;;;10.57;6.35;;;;;;;;;;5032066;28;20052;-65
2021/04/21 02:42:59;;;;;;;11.02;6.38;;;;;;;;;;5032757;28;20041;-65
2021/04/21 02:45:38;;;;;;;11.65;5.18;;;;;;;;;;5032434;28;20030;-65
2021/04/21 02:48:08;;;;;;;12.85;6.45;;;;;;;;;;5032065;28;20580;-66
2021/04/21 02:50:38;;;;;;;11.90;5.32;;;;;;;;;;5032946;28;20126;-65
2021/04/21 02:53:12;;;;;;;9.35;5.13;;;;;;;;;;5034460;28;20037;-66
2021/04/21 02:56:03;;;;;;;8.27;4.72;;;;;;;;;;5035993;28;20022;-65
2021/04/21 02:58:36;;;;;;;8.63;5.10;;;;;;;;;;5036340;28;20025;-66
2021/04/21 03:01:08;;;;;;;10.88;5.95;;;;;;;;;;5035990;28;20473;-65
2021/04/21 03:03:42;;;;;;;12.07;7.20;;;;;;;;;;5036290;28;20045;-65
2021/04/21 03:06:14;;;;;;;9.05;6.30;;;;;;;;;;5036194;28;20391;-66
2021/04/21 03:08:42;;;;;;;10.90;6.13;;;;;;;;;;5035838;28;20026;-66
2021/04/21 03:11:20;;;;;;;8.60;5.05;;;;;;;;;;5035943;28;20116;-66
2021/04/21 03:13:53;;;;;;;8.40;4.65;;;;;;;;;;5035999;28;20046;-65
2021/04/21 03:16:20;;;;;;;7.35;4.63;;;;;;;;;;5035492;28;20529;-66
2021/04/21 03:18:47;;;;;;;8.98;5.15;;;;;;;;;;5035976;28;20051;-65
2021/04/21 03:21:16;;;;;;;9.63;5.53;;;;;;;;;;5036047;28;20021;-66
2021/04/21 03:23:43;;;;;;;9.70;5.88;;;;;;;;;;5035560;28;20036;-66
2021/04/21 03:26:10;;;;;;;11.90;6.85;;;;;;;;;;5035776;28;20033;-65
2021/04/21 03:28:38;;;;;;;13.43;7.38;;;;;;;;;;5035675;28;20018;-65
2021/04/21 03:31:06;;;;;;;10.65;6.63;;;;;;;;;;5034952;28;20048;-66
2021/04/21 03:33:44;;;;;;;12.80;7.32;;;;;;;;;;5035658;28;20158;-66
2021/04/21 03:36:13;;;;;;;10.27;5.65;;;;;;;;;;5035255;28;20083;-66
2021/04/21 03:38:40;;;;;;;17.35;9.18;;;;;;;;;;5035533;28;20113;-66
2021/04/21 03:41:06;;;;;;;16.15;7.70;;;;;;;;;;5035703;28;20033;-66
2021/04/21 03:43:33;;;;;;;15.23;8.20;;;;;;;;;;5035266;28;20079;-66
2021/04/21 03:45:59;;;;;;;13.02;7.80;;;;;;;;;;5035473;28;20029;-65
2021/04/21 03:48:25;;;;;;;11.65;6.38;;;;;;;;;;5035670;28;20493;-65
2021/04/21 03:50:54;;;;;;;12.57;6.50;;;;;;;;;;5034932;28;20029;-66
2021/04/21 03:53:25;;;;;;;11.90;6.57;;;;;;;;;;5035300;28;20022;-66
2021/04/21 03:55:55;;;;;;;14.82;8.43;;;;;;;;;;5035324;28;20030;-65
2021/04/21 03:58:21;;;;;;;9.32;5.90;;;;;;;;;;5034847;28;20025;-66
2021/04/21 04:00:56;;;;;;;13.40;7.10;;;;;;;;;;5035209;28;20068;-66
2021/04/21 04:03:24;;;;;;;12.48;7.05;;;;;;;;;;5034905;28;20029;-66
2021/04/21 04:06:01;;;;;;;13.48;7.95;;;;;;;;;;5034614;28;20025;-65
2021/04/21 04:08:30;;;;;;;12.35;7.53;;;;;;;;;;5035049;28;20025;-66
2021/04/21 04:10:56;;;;;;;13.90;7.13;;;;;;;;;;5034652;28;20079;-66
2021/04/21 04:13:24;;;;;;;14.88;8.55;;;;;;;;;;5034895;28;20029;-65
2021/04/21 04:15:50;;;;;;;15.98;8.45;;;;;;;;;;5035266;28;20096;-65
2021/04/21 04:18:17;;;;;;;13.50;8.57;;;;;;;;;;5034388;28;20498;-66
2021/04/21 04:20:44;;;;;;;35.55;21.80;;;;;;;;;;5034857;28;20037;-65
2021/04/21 04:23:12;;;;;;;17.52;10.85;;;;;;;;;;5034995;28;20021;-66
2021/04/21 04:25:39;;;;;;;15.00;9.07;;;;;;;;;;5034443;28;20501;-66
2021/04/21 04:28:07;;;;;;;12.90;8.02;;;;;;;;;;5034980;28;20025;-66
2021/04/21 04:30:33;;;;;;;12.68;7.38;;;;;;;;;;5034309;28;20053;-66
2021/04/21 04:33:00;;;;;;;14.02;8.57;;;;;;;;;;5034077;28;20054;-66
2021/04/21 04:35:26;;;;;;;13.73;7.82;;;;;;;;;;5034462;28;20022;-66
2021/04/21 04:37:57;;;;;;;16.23;9.10;;;;;;;;;;5034762;28;20052;-66
2021/04/21 04:40:23;;;;;;;16.17;9.38;;;;;;;;;;5034337;28;20084;-66
2021/04/21 04:42:49;;;;;;;14.25;7.00;;;;;;;;;;5034537;28;20516;-66
2021/04/21 04:45:16;;;;;;;10.63;6.80;;;;;;;;;;5034364;28;20030;-66
2021/04/21 04:47:45;;;;;;;10.27;5.63;;;;;;;;;;5033978;28;20032;-65
2021/04/21 04:50:18;;;;;;;10.77;6.20;;;;;;;;;;5034241;28;20470;-66
2021/04/21 04:52:46;;;;;;;15.57;7.35;;;;;;;;;;5032717;28;20045;-66
2021/04/21 04:55:14;;;;;;;13.13;8.23;;;;;;;;;;5034184;28;20025;-66
2021/04/21 04:57:42;;;;;;;15.52;8.57;;;;;;;;;;5034152;28;20381;-66
2021/04/21 05:00:10;;;;;;;23.80;10.55;;;;;;;;;;5034077;28;20021;-70
2021/04/21 05:02:39;;;;;;;18.15;11.05;;;;;;;;;;5034143;28;20477;-70
2021/04/21 05:05:07;;;;;;;21.88;14.00;;;;;;;;;;5033563;28;20026;-70
2021/04/21 05:07:42;;;;;;;19.10;11.60;;;;;;;;;;5031422;28;20029;-70
2021/04/21 05:10:11;;;;;;;17.17;10.10;;;;;;;;;;5026554;28;20140;-71
2021/04/21 05:12:38;;;;;;;13.15;8.40;;;;;;;;;;5032654;28;20032;-70
2021/04/21 05:15:05;;;;;;;11.35;6.90;;;;;;;;;;5032069;28;20407;-70
2021/04/21 05:18:01;;;;;;;13.20;7.57;;;;;;;;;;5032329;28;20052;-70
2021/04/21 05:20:30;;;;;;;12.63;6.97;;;;;;;;;;5023511;28;20115;-70
2021/04/21 05:23:16;;;;;;;11.07;7.47;;;;;;;;;;5032055;28;20034;-69
2021/04/21 05:25:42;;;;;;;16.30;7.45;;;;;;;;;;5032827;28;20033;-69
2021/04/21 05:28:26;;;;;;;16.80;9.85;;;;;;;;;;5033150;28;20108;-71
2021/04/21 05:31:11;;;;;;;16.45;8.60;;;;;;;;;;5031021;28;20511;-70
2021/04/21 05:33:56;;;;;;;16.10;9.77;;;;;;;;;;5032849;28;20017;-69
2021/04/21 05:36:25;;;;;;;14.52;9.63;;;;;;;;;;5031489;28;20040;-70
2021/04/21 05:39:10;;;;;;;18.48;12.00;;;;;;;;;;5032247;28;20029;-70
2021/04/21 05:41:54;;;;;;;26.15;17.85;;;;;;;;;;5031497;28;20465;-70
2021/04/21 05:44:53;;;;;;;15.65;11.32;;;;;;;;;;5026825;28;20443;-70
2021/04/21 05:47:25;;;;;;;14.48;9.38;;;;;;;;;;5031924;28;20029;-70
2021/04/21 05:50:10;;;;;;;19.88;14.40;;;;;;;;;;5031192;28;20021;-70
2021/04/21 05:52:56;;;;;;;17.95;11.05;;;;;;;;;;5030327;28;20040;-70
2021/04/21 05:55:31;;;;;;;13.98;8.88;;;;;;;;;;5029081;28;20057;-67
2021/04/21 05:58:06;;;;;;;13.55;8.05;;;;;;;;;;5029521;28;20029;-68
2021/04/21 06:00:44;;;;;;;12.90;7.30;;;;;;;;;;5031948;28;20037;-67
2021/04/21 06:03:12;;;;;;;11.25;6.40;;;;;;;;;;5029463;28;20075;-68
2021/04/21 06:05:38;;;;;;;11.57;6.75;;;;;;;;;;5029636;28;20030;-67
2021/04/21 06:08:12;;;;;;;14.48;8.57;;;;;;;;;;5031111;28;20021;-68
2021/04/21 06:10:38;;;;;;;;;;;;;;;;;;5032165;28;20036;-67
2021/04/21 06:13:04;;;;;;;16.23;10.45;;;;;;;;;;5029714;28;20414;-68
2021/04/21 06:15:31;;;;;;;18.02;11.25;;;;;;;;;;5029718;28;20040;-67
2021/04/21 06:18:00;;;;;;;14.15;8.70;;;;;;;;;;5031049;28;20104;-68
2021/04/21 06:20:30;;;;;;;10.73;7.13;;;;;;;;;;5030904;28;20030;-68
2021/04/21 06:23:01;;;;;;;15.98;8.88;;;;;;;;;;5031995;28;20414;-67
2021/04/21 06:25:28;;;;;;;23.10;11.80;;;;;;;;;;5029776;28;20030;-67
2021/04/21 06:28:06;;;;;;;17.15;9.82;;;;;;;;;;5030314;28;20033;-67
2021/04/21 06:30:32;;;;;;;14.45;8.77;;;;;;;;;;5030602;28;20480;-68
2021/04/21 06:32:59;;;;;;;15.98;10.18;;;;;;;;;;5029997;28;20034;-68
2021/04/21 06:35:28;;;;;;;16.58;10.57;;;;;;;;;;5030320;28;20021;-67
2021/04/21 06:37:55;;;;;;;15.73;10.15;;;;;;;;;;5029809;28;20087;-68
2021/04/21 06:40:24;;;;;;;14.40;8.73;;;;;;;;;;5031307;28;20032;-68
2021/04/21 06:42:51;;;;;;;18.63;10.20;;;;;;;;;;5027958;28;20024;-68
2021/04/21 06:45:27;;;;;;;19.63;12.57;;;;;;;;;;5030732;28;20033;-68
2021/04/21 06:47:55;;;;;;;13.95;9.15;;;;;;;;;;5031430;28;20022;-68
2021/04/21 06:50:26;;;;;;;20.17;11.10;;;;;;;;;;5031787;28;20026;-67
2021/04/21 06:52:57;;;;;;;14.30;9.68;;;;;;;;;;5031241;28;20034;-67
2021/04/21 06:55:24;;;;;;;13.68;8.02;;;;;;;;;;5031186;28;20053;-67
2021/04/21 06:57:50;;;;;;;13.38;8.73;;;;;;;;;;5031989;28;20489;-67
2021/04/21 07:00:22;;;;;;;17.55;9.70;;;;;;;;;;5031391;28;20021;-67
2021/04/21 07:02:52;;;;;;;17.02;10.32;;;;;;;;;;5032079;28;20100;-67
2021/04/21 07:05:26;;;;;;;14.63;9.32;;;;;;;;;;5031190;28;20616;-67
2021/04/21 07:08:06;;;;;;;14.70;7.60;;;;;;;;;;5046141;28;20033;-67
2021/04/21 07:10:33;;;;;;;12.68;7.63;;;;;;;;;;5031600;28;20113;-67
2021/04/21 07:13:00;;;;;;;13.68;8.52;;;;;;;;;;5031652;28;20040;-67
2021/04/21 07:15:27;;;;;;;15.20;8.02;;;;;;;;;;5031007;28;20482;-67
2021/04/21 07:17:53;;;;;;;13.48;7.97;;;;;;;;;;5030825;28;20075;-68
2021/04/21 07:20:20;;;;;;;13.20;8.50;;;;;;;;;;5026802;28;20026;-67
2021/04/21 07:22:47;;;;;;;13.35;9.07;;;;;;;;;;5029671;28;20021;-68
2021/04/21 07:25:14;;;;;;;10.77;6.80;;;;;;;;;;5031635;28;20033;-69
2021/04/21 07:27:42;;;;;;;13.88;9.13;;;;;;;;;;5030578;28;20026;-69
2021/04/21 07:30:28;;;;;;;15.20;9.30;;;;;;;;;;5109692;27;20396;-67
2021/04/21 07:32:55;;;;;;;12.65;7.97;;;;;;;;;;5109424;28;20590;-68
2021/04/21 07:36:31;;;;;;;11.27;6.53;;;;;;;;;;5109148;27;20354;-68
2021/04/21 07:38:58;;;;;;;11.27;7.05;;;;;;;;;;5105315;28;20031;-67
2021/04/21 07:41:39;;;;;;;13.48;7.63;;;;;;;;;;5108306;28;20028;-68
2021/04/21 07:44:06;;;;;;;16.98;9.80;;;;;;;;;;5109973;28;20380;-68
2021/04/21 07:47:52;;;;;;;13.18;6.40;;;;;;;;;;5109323;27;20434;-71
2021/04/21 07:52:27;;;;;;;11.43;7.20;;;;;;;;;;5084589;27;20731;-67
2021/04/21 07:55:14;;;;;;;11.43;7.10;;;;;;;;;;5088855;28;20071;-67
2021/04/21 07:57:42;;;;;;;9.95;5.63;;;;;;;;;;5089139;28;20383;-69
2021/04/21 08:00:09;;;;;;;9.93;5.40;;;;;;;;;;5088078;28;20024;-68
2021/04/21 08:02:36;;;;;;;11.57;6.68;;;;;;;;;;5088357;28;20028;-69
2021/04/21 08:05:07;;;;;;;13.25;5.93;;;;;;;;;;5098085;28;20031;-70
2021/04/21 08:07:39;;;;;;;11.15;5.30;;;;;;;;;;5109450;28;20054;-69
2021/04/21 08:10:07;;;;;;;8.23;4.93;;;;;;;;;;5108943;28;20026;-70
2021/04/21 08:15:26;;;;;;;8.18;4.07;;;;;;;;;;5027639;28;20386;-70
2021/04/21 08:18:01;;;;;;;8.95;4.55;;;;;;;;;;5025909;28;20026;-71
2021/04/21 08:20:35;;;;;;;7.93;4.25;;;;;;;;;;5027408;28;20045;-72
2021/04/21 08:23:03;;;;;;;9.07;4.35;;;;;;;;;;5026261;28;20021;-75
2021/04/21 08:27:08;;;;;;;5.68;3.38;;;;;;;;;;5106209;27;20158;-71
2021/04/21 08:29:34;;;;;;;6.72;3.28;;;;;;;;;;5104667;28;20426;-72
2021/04/21 08:32:00;;;;;;;5.68;2.78;;;;;;;;;;5107750;28;20020;-72
2021/04/21 08:34:26;;;;;;;9.68;5.15;;;;;;;;;;5106270;28;20070;-71
2021/04/21 08:36:53;;;;;;;10.13;6.05;;;;;;;;;;5107493;28;20031;-71
2021/04/21 08:39:19;;;;;;;8.90;5.38;;;;;;;;;;5109404;28;20121;-70
2021/04/21 08:41:45;;;;;;;6.88;3.90;;;;;;;;;;5109838;28;20020;-70
2021/04/21 08:44:55;;;;;;;9.07;3.13;;;;;;;;;;5103327;27;20442;-72
2021/04/21 08:47:23;;;;;;;5.72;3.10;;;;;;;;;;5103534;28;20028;-72
2021/04/21 08:49:49;;;;;;;5.47;3.13;;;;;;;;;;5104996;28;20024;-70
2021/04/21 08:54:11;;;;;;;7.45;3.53;;;;;;;;;;5108631;27;20441;-67
2021/04/21 09:00:10;;;;;;;6.40;3.45;;;;;;;;;;5109126;27;20381;-73
2021/04/21 09:02:37;;;;;;;7.57;3.83;;;;;;;;;;5108993;28;20039;-68
2021/04/21 09:05:03;;;;;;;5.32;2.78;;;;;;;;;;5108999;28;20024;-68
2021/04/21 09:07:29;;;;;;;5.15;2.65;;;;;;;;;;5108397;28;20035;-68
2021/04/21 09:09:57;;;;;;;6.63;3.75;;;;;;;;;;5108607;28;20468;-69
2021/04/21 09:13:46;;;;;;;6.95;3.63;;;;;;;;;;5107683;27;20393;-70
2021/04/21 09:16:13;;;;;;;5.78;3.33;;;;;;;;;;5102728;28;20036;-69
2021/04/21 09:18:39;;;;;;;8.57;3.42;;;;;;;;;;5089583;28;20028;-71
2021/04/21 09:21:07;;;;;;;5.68;3.10;;;;;;;;;;5087951;28;20686;-69
2021/04/21 09:23:37;;;;;;;8.65;2.97;;;;;;;;;;5088441;28;20032;-69
2021/04/21 09:26:12;;;;;;;8.75;4.13;;;;;;;;;;5095734;28;20028;-70
2021/04/21 09:28:40;;;;;;;4.45;2.75;;;;;;;;;;5102904;28;20534;-70
2021/04/21 09:31:12;;;;;;;4.32;2.67;;;;;;;;;;5108116;28;20032;-71
2021/04/21 09:33:38;;;;;;;9.32;4.32;;;;;;;;;;5108697;28;20399;-70
2021/04/21 09:36:05;;;;;;;11.10;5.55;;;;;;;;;;5109505;28;20020;-69
2021/04/21 09:40:11;;;;;;;11.02;6.07;;;;;;;;;;5109811;27;20164;-70
2021/04/21 09:42:38;;;;;;;7.75;3.90;;;;;;;;;;5109900;28;20123;-70
2021/04/21 09:45:05;;;;;;;7.95;4.50;;;;;;;;;;5109627;28;20442;-69
2021/04/21 09:47:31;;;;;;;7.97;3.10;;;;;;;;;;5098004;28;20024;-70
2021/04/21 09:49:59;;;;;;;5.25;2.80;;;;;;;;;;5109642;28;20494;-70
2021/04/21 09:52:25;;;;;;;6.53;2.97;;;;;;;;;;5109856;28;20034;-69
2021/04/21 09:55:38;;;;;;;10.05;4.10;;;;;;;;;;5109268;27;20380;-70
2021/04/21 09:58:04;;;;;;;8.30;3.88;;;;;;;;;;5103925;28;20028;-70
2021/04/21 10:01:29;;;;;;;5.78;3.10;;;;;;;;;;5110371;27;20473;-69
2021/04/21 10:04:17;;;;;;;4.93;2.35;;;;;;;;;;5109917;28;20035;-69
2021/04/21 10:06:54;;;;;;;4.05;2.28;;;;;;;;;;5108589;28;20035;-70
2021/04/21 10:10:30;;;;;;;5.95;2.45;;;;;;;;;;5129940;27;20107;-71
2021/04/21 10:12:56;;;;;;;6.43;2.90;;;;;;;;;;5084259;28;20020;-70
2021/04/21 10:16:44;;;;;;;6.75;3.17;;;;;;;;;;5108114;27;20385;-71
2021/04/21 10:20:05;;;;;;;3.47;1.77;;;;;;;;;;5109200;27;20441;-72
2021/04/21 10:26:43;;;;;;;3.00;1.95;;;;;;;;;;5141483;27;20389;-70
2021/04/21 10:29:09;;;;;;;4.57;2.42;;;;;;;;;;5125873;28;20028;-70
2021/04/21 10:31:36;;;;;;;3.88;2.08;;;;;;;;;;5125557;28;20407;-71
2021/04/21 10:34:04;;;;;;;5.47;2.70;;;;;;;;;;5125855;28;20056;-71
2021/04/21 10:37:47;;;;;;;8.02;3.95;;;;;;;;;;5109856;27;20388;-71
2021/04/21 10:40:23;;;;;;;7.15;3.40;;;;;;;;;;5109769;28;20103;-70
2021/04/21 10:42:50;;;;;;;8.32;3.10;;;;;;;;;;5108595;28;20111;-71
2021/04/21 10:45:18;;;;;;;4.75;2.92;;;;;;;;;;5108251;28;20155;-71
2021/04/21 10:47:45;;;;;;;4.35;2.42;;;;;;;;;;5109534;28;20077;-71
2021/04/21 10:50:12;;;;;;;6.07;3.10;;;;;;;;;;5109928;28;20024;-70
2021/04/21 10:52:40;;;;;;;6.47;2.55;;;;;;;;;;5106921;28;20024;-68
2021/04/21 10:57:33;;;;;;;4.85;2.60;;;;;;;;;;5106174;27;20757;-74
2021/04/21 11:00:07;;;;;;;16.70;9.43;;;;;;;;;;5106457;28;20048;-70
2021/04/21 11:03:57;;;;;;;6.28;3.10;;;;;;;;;;5107654;27;20121;-72
2021/04/21 11:08:22;;;;;;;4.35;2.28;;;;;;;;;;5128260;27;20116;-71
2021/04/21 11:10:51;;;;;;;5.25;2.78;;;;;;;;;;5108303;28;20032;-71
2021/04/21 11:13:36;;;;;;;4.80;2.58;;;;;;;;;;5090113;28;20077;-72
2021/04/21 11:16:05;;;;;;;8.65;4.00;;;;;;;;;;5089821;28;20391;-71
2021/04/21 11:18:32;;;;;;;8.18;4.03;;;;;;;;;;5091399;28;20020;-71
2021/04/21 11:21:31;;;;;;;7.95;4.32;;;;;;;;;;5130297;27;20112;-73
2021/04/21 11:24:09;;;;;;;6.15;2.95;;;;;;;;;;5110383;28;20055;-70
2021/04/21 11:30:26;;;;;;;5.32;2.25;;;;;;;;;;5114611;27;20168;-71
2021/04/21 11:32:53;;;;;;;6.97;3.17;;;;;;;;;;5110146;28;20023;-71
2021/04/21 11:35:28;;;;;;;8.00;3.45;;;;;;;;;;5109981;28;20028;-71
2021/04/21 11:37:54;;;;;;;7.35;3.20;;;;;;;;;;5110218;28;20028;-71
2021/04/21 11:41:14;;;;;;;4.07;2.47;;;;;;;;;;5110414;27;20394;-70
2021/04/21 11:45:50;;;;;;;4.07;2.00;;;;;;;;;;5110462;27;20422;-72
2021/04/21 11:48:18;;;;;;;4.65;2.30;;;;;;;;;;5108811;28;20028;-69
2021/04/21 11:53:19;;;;;;;5.57;2.65;;;;;;;;;;5069339;28;20391;-68
2021/04/21 11:56:08;;;;;;;4.78;2.60;;;;;;;;;;5066392;28;20032;-68
2021/04/21 11:58:33;;;;;;;4.80;2.30;;;;;;;;;;5067295;28;20385;-68
2021/04/21 12:01:13;;;;;;;5.50;2.72;;;;;;;;;;5069514;28;20025;-69
2021/04/21 12:03:40;;;;;;;7.47;2.10;;;;;;;;;;5067983;28;20112;-69
2021/04/21 12:06:08;;;;;;;3.88;2.17;;;;;;;;;;5068709;28;20024;-69
2021/04/21 12:08:35;;;;;;;4.10;2.25;;;;;;;;;;5066891;28;20032;-69
2021/04/21 12:11:03;;;;;;;5.97;2.63;;;;;;;;;;5065264;28;20508;-69
2021/04/21 12:13:39;;;;;;;3.58;1.83;;;;;;;;;;5066142;28;20063;-69
2021/04/21 12:17:36;;;;;;;4.82;2.35;;;;;;;;;;5107805;27;20381;-67
2021/04/21 12:20:02;;;;;;;3.30;1.95;;;;;;;;;;5107759;28;20038;-67
2021/04/21 12:22:41;;;;;;;5.15;2.78;;;;;;;;;;5107897;28;20020;-67
2021/04/21 12:25:09;;;;;;;6.35;3.33;;;;;;;;;;5105924;28;20028;-70
2021/04/21 12:27:35;;;;;;;5.00;2.67;;;;;;;;;;5108463;28;20024;-70
2021/04/21 12:30:14;;;;;;;4.68;2.13;;;;;;;;;;5108128;28;20508;-69
2021/04/21 12:32:41;;;;;;;3.95;2.17;;;;;;;;;;5105196;28;20024;-68
2021/04/21 12:35:07;;;;;;;7.95;3.22;;;;;;;;;;5106636;28;20070;-68
2021/04/21 12:37:34;;;;;;;6.22;3.13;;;;;;;;;;5107336;28;20085;-68
2021/04/21 12:40:00;;;;;;;4.55;2.33;;;;;;;;;;5108074;28;20375;-68
2021/04/21 12:42:26;;;;;;;4.78;2.22;;;;;;;;;;5107941;28;20023;-68
2021/04/21 12:44:53;;;;;;;3.13;1.48;;;;;;;;;;5108225;28;20027;-68
2021/04/21 12:48:24;;;;;;;6.53;2.85;;;;;;;;;;5110505;27;20454;-67
2021/04/21 12:50:51;;;;;;;4.28;2.80;;;;;;;;;;5110381;28;20031;-67
2021/04/21 12:54:43;;;;;;;5.28;2.67;;;;;;;;;;5110371;27;20377;-68
2021/04/21 12:57:11;;;;;;;5.65;3.25;;;;;;;;;;5109135;28;20032;-68
2021/04/21 12:59:44;;;;;;;3.47;1.70;;;;;;;;;;5108677;28;20319;-68
2021/04/21 13:02:20;;;;;;;3.63;1.60;;;;;;;;;;5110493;28;20016;-69
2021/04/21 13:04:47;;;;;;;3.75;2.03;;;;;;;;;;5110291;28;20026;-68
2021/04/21 13:07:14;;;;;;;3.67;1.48;;;;;;;;;;5108214;28;20111;-68
2021/04/21 13:09:41;;;;;;;4.38;2.38;;;;;;;;;;5108883;28;20031;-67
2021/04/21 13:12:10;;;;;;;9.02;4.03;;;;;;;;;;5108659;28;20031;-68
2021/04/21 13:14:40;;;;;;;6.00;3.35;;;;;;;;;;5108300;28;20365;-68
2021/04/21 13:17:08;;;;;;;9.00;4.00;;;;;;;;;;5110032;28;20070;-68
2021/04/21 13:19:54;;;;;;;4.28;1.98;;;;;;;;;;5108268;28;20111;-67
2021/04/21 13:22:25;;;;;;;6.00;1.73;;;;;;;;;;5108368;28;20024;-68
2021/04/21 13:24:52;;;;;;;3.38;1.25;;;;;;;;;;5109913;28;20439;-67
2021/04/21 13:27:19;;;;;;;3.33;1.65;;;;;;;;;;5108455;28;20391;-69
2021/04/21 13:29:54;;;;;;;1.75;1.20;;;;;;;;;;5108449;28;20555;-69
2021/04/21 13:32:20;;;;;;;2.53;0.80;;;;;;;;;;5109737;28;20058;-69
2021/04/21 13:34:46;;;;;;;1.73;0.90;;;;;;;;;;5109316;28;20024;-69
2021/04/21 13:37:13;;;;;;;3.10;1.60;;;;;;;;;;5109643;28;20092;-68
2021/04/21 13:39:39;;;;;;;2.88;1.50;;;;;;;;;;5108322;28;20387;-67
2021/04/21 13:42:06;;;;;;;5.18;1.27;;;;;;;;;;5108014;28;20420;-68
2021/04/21 13:44:32;;;;;;;4.10;1.17;;;;;;;;;;5109666;28;20051;-67
2021/04/21 13:46:59;;;;;;;3.83;1.58;;;;;;;;;;5109350;28;20027;-67
2021/04/21 13:49:25;;;;;;;5.78;2.92;;;;;;;;;;5108889;28;20024;-68
2021/04/21 13:51:52;;;;;;;4.88;2.95;;;;;;;;;;5108118;28;20115;-68
2021/04/21 13:54:18;;;;;;;5.22;2.50;;;;;;;;;;5107858;28;20040;-68
2021/04/21 13:56:45;;;;;;;5.30;2.83;;;;;;;;;;5107636;28;20028;-68
2021/04/21 13:59:12;;;;;;;4.72;2.58;;;;;;;;;;5108169;28;20027;-68
2021/04/21 14:02:25;;;;;;;5.07;2.20;;;;;;;;;;5110054;27;20787;-68
2021/04/21 14:04:53;;;;;;;8.48;4.15;;;;;;;;;;5110660;28;20024;-68
2021/04/21 14:07:20;;;;;;;6.82;3.28;;;;;;;;;;5110417;28;20027;-68
2021/04/21 14:09:46;;;;;;;7.85;3.90;;;;;;;;;;5108740;28;20053;-69
2021/04/21 14:12:12;;;;;;;4.57;2.08;;;;;;;;;;5109159;28;20023;-69
2021/04/21 14:14:39;;;;;;;4.38;2.05;;;;;;;;;;5110434;28;20043;-68
2021/04/21 14:17:05;;;;;;;5.47;2.33;;;;;;;;;;5109867;28;20016;-68
2021/04/21 14:19:32;;;;;;;2.45;1.17;;;;;;;;;;5108979;28;20392;-69
2021/04/21 14:22:00;;;;;;;3.20;1.67;;;;;;;;;;5108762;28;20028;-68
2021/04/21 14:24:26;;;;;;;6.72;3.40;;;;;;;;;;5109737;28;20024;-68
2021/04/21 14:26:53;;;;;;;5.38;2.83;;;;;;;;;;5108628;28;20035;-68
2021/04/21 14:29:19;;;;;;;6.47;3.30;;;;;;;;;;5109842;28;20024;-69
2021/04/21 14:31:45;;;;;;;5.28;2.05;;;;;;;;;;5109334;28;20487;-69
2021/04/21 14:34:11;;;;;;;3.75;1.60;;;;;;;;;;5108546;28;20020;-69
2021/04/21 14:36:37;;;;;;;3.72;1.90;;;;;;;;;;5108482;28;20418;-69
2021/04/21 14:39:04;;;;;;;5.07;1.83;;;;;;;;;;5109471;28;20384;-69
2021/04/21 14:41:31;;;;;;;4.68;2.03;;;;;;;;;;5108580;28;20032;-68
2021/04/21 14:43:57;;;;;;;6.13;1.50;;;;;;;;;;5109337;28;20026;-69
2021/04/21 14:46:23;;;;;;;2.85;1.15;;;;;;;;;;5109584;28;20032;-69
2021/04/21 14:48:50;;;;;;;3.85;1.08;;;;;;;;;;5109649;28;20091;-69
2021/04/21 14:51:16;;;;;;;2.92;1.70;;;;;;;;;;5109093;28;20111;-69
2021/04/21 14:53:43;;;;;;;3.85;1.48;;;;;;;;;;5109598;28;20028;-69
2021/04/21 14:56:09;;;;;;;3.22;1.60;;;;;;;;;;5109525;28;20030;-69
2021/04/21 14:58:35;;;;;;;4.72;1.50;;;;;;;;;;5108946;28;20023;-69
2021/04/21 15:01:01;;;;;;;1.27;0.98;;;;;;;;;;5109301;28;20523;-69
2021/04/21 15:03:28;;;;;;;3.10;1.45;;;;;;;;;;5108132;28;20069;-69
2021/04/21 15:05:54;;;;;;;4.25;1.38;;;;;;;;;;5108777;28;20027;-69
2021/04/21 15:08:20;;;;;;;2.45;1.02;;;;;;;;;;5109189;28;20091;-68
2021/04/21 15:10:46;;;;;;;3.50;1.42;;;;;;;;;;5108062;28;20472;-69
2021/04/21 15:13:13;;;;;;;2.30;1.10;;;;;;;;;;5097367;28;20047;-69
2021/04/21 15:15:39;;;;;;;2.30;1.00;;;;;;;;;;5095676;28;20031;-69
2021/04/21 15:18:10;;;;;;;1.88;1.05;;;;;;;;;;5095635;28;20089;-69
2021/04/21 15:20:37;;;;;;;1.50;0.95;;;;;;;;;;5095116;28;20400;-69
2021/04/21 15:23:03;;;;;;;3.55;0.90;;;;;;;;;;5094437;28;20032;-69
2021/04/21 15:25:32;;;;;;;0.85;0.60;;;;;;;;;;5095231;28;20089;-69
2021/04/21 15:27:59;;;;;;;4.85;1.38;;;;;;;;;;5093450;28;20031;-69
2021/04/21 15:30:26;;;;;;;5.32;1.33;;;;;;;;;;5093886;28;20391;-70
2021/04/21 15:32:53;;;;;;;2.05;1.23;;;;;;;;;;5093833;28;20099;-69
2021/04/21 15:35:19;;;;;;;2.90;1.05;;;;;;;;;;5094618;28;20050;-69
2021/04/21 15:37:47;;;;;;;2.15;1.30;;;;;;;;;;5095198;28;20167;-69
2021/04/21 15:40:17;;;;;;;1.90;1.20;;;;;;;;;;5094572;28;20046;-69